Moreland Hills, Ohio
Current Conditions -  °F | °C
As of 9:45 PM on Saturday 25 Oct 2014 (Local Time) from KCGF Reporting Station
Clear Clear  
Wind Chill: 61°   Ceiling: Unl
Heat Index: 61°   Visibility: 10mi
Dew Point: 43°   Wind: 17mph
Humidity: 52%   Direction: 300°WNW
Pressure: 29.78"   Gusts: 29mph
Location:  41.4475°N, 81.4018°W
Report Text: KCGF 260145Z 30015G25KT 10SM SKC 16/06 A2978
Loading
Personal Weather Stations






























Interactive Weather Map
Tropical Storm Tracking
New forecast layout! Learn more

10-Day Weather Forecast

Advertisements
Track Severe Weather on mobile